createdAt,value
2023-05-15T00:00:13.242Z,97406.63
2023-05-15T00:02:46.003Z,97398.50
2023-05-15T00:05:18.804Z,97403.56
2023-05-15T00:07:48.934Z,97395.72
2023-05-15T00:10:19.211Z,97394.44
2023-05-15T00:12:49.332Z,97394.44
2023-05-15T00:15:19.597Z,97387.59
2023-05-15T00:17:49.759Z,97384.81
2023-05-15T00:20:22.709Z,97381.53
2023-05-15T00:22:53.012Z,97384.81
2023-05-15T00:25:23.556Z,97384.31
2023-05-15T00:27:53.854Z,97383.56
2023-05-15T00:30:24.226Z,97377.72
2023-05-15T00:32:54.367Z,97379.00
2023-05-15T00:35:27.346Z,97372.41
2023-05-15T00:37:57.398Z,97371.16
2023-05-15T00:40:27.891Z,97371.16
2023-05-15T00:42:58.898Z,97363.03
2023-05-15T00:45:29.840Z,97362.06
2023-05-15T00:48:01.253Z,97362.28
2023-05-15T00:50:36.282Z,97354.19
2023-05-15T00:53:08.633Z,97351.91
2023-05-15T00:55:39.216Z,97352.94
2023-05-15T00:58:09.758Z,97353.44
2023-05-15T01:00:40.101Z,97357.00
2023-05-15T01:03:10.790Z,97361.31
2023-05-15T01:05:43.624Z,97357.00
2023-05-15T01:08:19.216Z,97352.97
2023-05-15T01:10:51.026Z,97351.19
2023-05-15T01:13:23.217Z,97349.91
2023-05-15T01:15:53.601Z,97343.59
2023-05-15T01:18:23.844Z,97332.94
2023-05-15T01:21:23.346Z,97336.25
2023-05-15T01:24:06.155Z,97338.25
2023-05-15T01:26:52.246Z,97330.44
2023-05-15T01:29:29.115Z,97331.16
2023-05-15T01:32:06.514Z,97336.25
2023-05-15T01:34:47.149Z,97333.91
2023-05-15T01:37:23.948Z,97328.88
2023-05-15T01:39:57.327Z,97322.03
2023-05-15T01:42:32.987Z,97330.84
2023-05-15T01:45:08.718Z,97325.03
2023-05-15T01:47:42.684Z,97320.22
2023-05-15T01:50:16.521Z,97327.81
2023-05-15T01:52:49.850Z,97318.69
2023-05-15T01:55:20.860Z,97321.47
2023-05-15T01:57:52.425Z,97315.63
2023-05-15T02:00:25.627Z,97316.88
2023-05-15T02:02:56.366Z,97315.88
2023-05-15T02:05:27.339Z,97321.38
2023-05-15T02:07:58.277Z,97315.06
2023-05-15T02:10:29.318Z,97303.88
2023-05-15T02:12:59.815Z,97304.41
2023-05-15T02:15:32.961Z,97301.63
2023-05-15T02:18:03.337Z,97298.00
2023-05-15T02:20:34.177Z,97302.25
2023-05-15T02:23:04.331Z,97300.25
2023-05-15T02:25:40.890Z,97300.50
2023-05-15T02:28:14.100Z,97294.69
2023-05-15T02:30:58.823Z,97294.69
2023-05-15T02:33:34.975Z,97286.09
2023-05-15T02:36:08.512Z,97292.38
2023-05-15T02:38:42.351Z,97287.78
2023-05-15T02:41:13.095Z,97288.56
2023-05-15T02:43:43.592Z,97288.09
2023-05-15T02:46:17.944Z,97281.19
2023-05-15T02:48:49.240Z,97283.97
2023-05-15T02:51:19.438Z,97278.94
2023-05-15T02:53:49.715Z,97278.66
2023-05-15T02:56:19.904Z,97275.63
2023-05-15T02:58:50.094Z,97271.84
2023-05-15T03:01:22.895Z,97273.09
2023-05-15T03:03:53.110Z,97273.84
2023-05-15T03:06:23.318Z,97270.56
2023-05-15T03:08:53.501Z,97259.91
2023-05-15T03:11:23.701Z,97258.13
2023-05-15T03:13:53.805Z,97248.25
2023-05-15T03:16:26.744Z,97253.56
2023-05-15T03:18:57.083Z,97249.25
2023-05-15T03:21:27.245Z,97253.03
2023-05-15T03:23:57.329Z,97255.06
2023-05-15T03:26:27.451Z,97252.00
2023-05-15T03:28:58.264Z,97247.97
2023-05-15T03:31:31.114Z,97252.78
2023-05-15T03:34:01.284Z,97253.03
2023-05-15T03:36:31.704Z,97246.97
2023-05-15T03:39:01.864Z,97244.22
2023-05-15T03:41:32.008Z,97246.75
2023-05-15T03:44:03.764Z,97238.44
2023-05-15T03:46:36.596Z,97241.72
2023-05-15T03:49:06.881Z,97242.72
2023-05-15T03:51:37.970Z,97242.22
2023-05-15T03:54:08.589Z,97243.25
2023-05-15T03:56:38.828Z,97235.66
2023-05-15T03:59:09.008Z,97236.19
2023-05-15T04:01:55.334Z,97240.72
2023-05-15T04:04:31.808Z,97235.44
2023-05-15T04:07:02.038Z,97244.53
2023-05-15T04:09:32.152Z,97240.72
2023-05-15T04:12:02.332Z,97240.72
2023-05-15T04:14:32.410Z,97246.56
2023-05-15T04:17:05.137Z,97232.19
2023-05-15T04:19:35.257Z,97231.19
2023-05-15T04:22:05.547Z,97238.03
2023-05-15T04:24:35.685Z,97234.56
2023-05-15T04:27:05.899Z,97229.03
2023-05-15T04:29:36.081Z,97241.44
2023-05-15T04:32:08.951Z,97237.41
2023-05-15T04:34:47.188Z,97237.69
2023-05-15T04:37:19.699Z,97238.47
2023-05-15T04:39:50.005Z,97229.63
2023-05-15T04:42:20.270Z,97223.06
2023-05-15T04:44:50.456Z,97226.34
2023-05-15T04:47:23.387Z,97230.94
2023-05-15T04:49:53.521Z,97237.28
2023-05-15T04:52:23.778Z,97229.16
2023-05-15T04:54:55.998Z,97228.94
2023-05-15T04:57:26.457Z,97221.84
2023-05-15T04:59:58.295Z,97220.34
2023-05-15T05:02:31.179Z,97224.63
2023-05-15T05:05:01.376Z,97220.84
2023-05-15T05:07:31.516Z,97223.13
2023-05-15T05:10:01.672Z,97219.06
2023-05-15T05:12:31.865Z,97216.31
2023-05-15T05:15:01.978Z,97219.84
2023-05-15T05:17:34.971Z,97212.50
2023-05-15T05:20:05.124Z,97215.28
2023-05-15T05:22:35.256Z,97214.00
2023-05-15T05:25:05.379Z,97207.88
2023-05-15T05:27:35.559Z,97199.59
2023-05-15T05:30:06.117Z,97204.84
2023-05-15T05:32:38.858Z,97202.03
2023-05-15T05:35:09.438Z,97202.50
2023-05-15T05:37:41.292Z,97200.16
2023-05-15T05:40:13.100Z,97197.94
2023-05-15T05:42:43.196Z,97199.47
2023-05-15T05:45:14.510Z,97206.88
2023-05-15T05:47:47.309Z,97199.31
2023-05-15T05:50:17.483Z,97213.69
2023-05-15T05:52:47.590Z,97205.88
2023-05-15T05:55:17.848Z,97207.09
2023-05-15T05:57:47.986Z,97199.91
2023-05-15T06:00:19.159Z,97196.84
2023-05-15T06:02:51.936Z,97195.31
2023-05-15T06:05:23.516Z,97191.44
2023-05-15T06:07:54.163Z,97195.16
2023-05-15T06:10:25.024Z,97187.00
2023-05-15T06:12:55.471Z,97190.53
2023-05-15T06:15:26.618Z,97186.19
2023-05-15T06:17:59.683Z,97185.00
2023-05-15T06:20:30.491Z,97179.44
2023-05-15T06:23:00.728Z,97174.88
2023-05-15T06:25:30.954Z,97181.22
2023-05-15T06:28:01.297Z,97175.16
2023-05-15T06:30:31.536Z,97180.31
2023-05-15T06:33:04.395Z,97178.31
2023-05-15T06:35:34.581Z,97175.00
2023-05-15T06:38:04.766Z,97176.75
2023-05-15T06:40:34.997Z,97173.34
2023-05-15T06:43:05.171Z,97172.00
2023-05-15T06:45:35.375Z,97174.94
2023-05-15T06:48:08.534Z,97171.09
2023-05-15T06:50:38.725Z,97174.50
2023-05-15T06:53:08.883Z,97171.53
2023-05-15T06:55:39.050Z,97173.53
2023-05-15T06:58:09.195Z,97168.09
2023-05-15T07:00:39.429Z,97172.16
2023-05-15T07:03:14.525Z,97166.81
2023-05-15T07:05:44.694Z,97168.59
2023-05-15T07:08:14.749Z,97165.91
2023-05-15T07:10:44.914Z,97160.78
2023-05-15T07:13:15.053Z,97168.94
2023-05-15T07:15:45.169Z,97162.31
2023-05-15T07:18:18.216Z,97160.81
2023-05-15T07:20:48.420Z,97162.47
2023-05-15T07:23:18.970Z,97158.59
2023-05-15T07:25:49.331Z,97155.91
2023-05-15T07:28:19.431Z,97160.03
2023-05-15T07:30:49.902Z,97156.41
2023-05-15T07:33:22.842Z,97145.28
2023-05-15T07:35:53.848Z,97148.56
2023-05-15T07:38:24.302Z,97144.63
2023-05-15T07:40:54.537Z,97144.06
2023-05-15T07:43:24.643Z,97153.75
2023-05-15T07:45:54.873Z,97141.66
2023-05-15T07:48:27.674Z,97143.72
2023-05-15T07:50:58.146Z,97145.50
2023-05-15T07:53:28.438Z,97142.75
2023-05-15T07:55:58.613Z,97146.66
2023-05-15T07:58:28.923Z,97144.25
2023-05-15T08:00:59.079Z,97141.31
2023-05-15T08:03:32.115Z,97139.03
2023-05-15T08:06:02.571Z,97140.22
2023-05-15T08:08:32.688Z,97136.91
2023-05-15T08:11:02.864Z,97134.69
2023-05-15T08:13:32.979Z,97134.91
2023-05-15T08:16:03.137Z,97123.72
2023-05-15T08:18:35.939Z,97131.97
2023-05-15T08:21:06.158Z,97133.84
2023-05-15T08:23:36.319Z,97126.91
2023-05-15T08:26:06.671Z,97129.53
2023-05-15T08:28:36.853Z,97134.38
2023-05-15T08:31:07.365Z,97126.34
2023-05-15T08:33:40.182Z,97133.25
2023-05-15T08:36:11.421Z,97132.06
2023-05-15T08:38:41.569Z,97119.97
2023-05-15T08:41:39.432Z,97121.28
2023-05-15T08:44:12.129Z,97120.47
2023-05-15T08:46:42.340Z,97114.25
2023-05-15T08:49:19.437Z,97119.13
2023-05-15T08:51:49.920Z,97115.22
2023-05-15T08:54:20.087Z,97105.97
2023-05-15T08:56:50.244Z,97120.13
2023-05-15T08:59:20.508Z,97118.22
2023-05-15T09:01:50.878Z,97110.00
2023-05-15T09:04:23.852Z,97109.22
2023-05-15T09:06:54.265Z,97108.66
2023-05-15T09:09:24.562Z,97108.66
2023-05-15T09:11:55.350Z,97099.88
2023-05-15T09:14:25.519Z,97104.75
2023-05-15T09:16:56.022Z,97104.34
2023-05-15T09:19:29.817Z,97102.31
2023-05-15T09:22:18.141Z,97098.69
2023-05-15T09:24:48.917Z,97100.81
2023-05-15T09:27:19.101Z,97093.44
2023-05-15T09:29:51.561Z,97090.41
2023-05-15T09:32:21.870Z,97093.78
2023-05-15T09:34:54.715Z,97088.88
2023-05-15T09:37:32.149Z,97096.06
2023-05-15T09:40:12.238Z,97081.59
2023-05-15T09:42:42.384Z,97094.38
2023-05-15T09:45:20.714Z,97088.00
2023-05-15T09:47:51.019Z,97075.94
2023-05-15T09:50:29.957Z,97081.81
2023-05-15T09:53:02.423Z,97077.56
2023-05-15T09:55:34.987Z,97079.03
2023-05-15T09:58:10.027Z,97083.22
2023-05-15T10:00:48.249Z,97080.59
2023-05-15T10:03:21.161Z,97090.38
2023-05-15T10:05:54.144Z,97091.97
2023-05-15T10:08:30.342Z,97095.50
2023-05-15T10:11:04.119Z,97084.88
2023-05-15T10:13:35.591Z,97088.91
2023-05-15T10:16:06.528Z,97090.47
2023-05-15T10:18:37.283Z,97083.03
2023-05-15T10:21:10.332Z,97093.91
2023-05-15T10:23:41.397Z,97087.75
2023-05-15T10:26:16.154Z,97086.63
2023-05-15T10:28:47.177Z,97082.69
2023-05-15T10:31:17.524Z,97082.59
2023-05-15T10:33:47.908Z,97089.44
2023-05-15T10:36:21.467Z,97084.31
2023-05-15T10:38:52.399Z,97078.72
2023-05-15T10:41:24.234Z,97077.63
2023-05-15T10:43:56.666Z,97071.25
2023-05-15T10:46:27.373Z,97074.63
2023-05-15T10:48:57.645Z,97069.00
2023-05-15T10:51:31.896Z,97066.38
2023-05-15T10:54:04.309Z,97060.78
2023-05-15T10:56:35.966Z,97059.09
2023-05-15T10:59:12.465Z,97059.41
2023-05-15T11:01:43.851Z,97063.31
2023-05-15T11:04:15.291Z,97046.00
2023-05-15T11:06:50.202Z,97045.41
2023-05-15T11:09:38.791Z,97045.72
2023-05-15T11:12:11.902Z,97042.91
2023-05-15T11:14:43.545Z,97027.94
2023-05-15T11:17:15.740Z,97027.53
2023-05-15T11:20:00.673Z,97019.94
2023-05-15T11:22:36.272Z,97018.56
2023-05-15T11:25:09.317Z,97030.22
2023-05-15T11:27:42.825Z,97021.56
2023-05-15T11:30:18.436Z,97017.84
2023-05-15T11:32:58.558Z,97014.53
2023-05-15T11:35:31.110Z,97009.16
2023-05-15T11:38:06.639Z,97007.00
2023-05-15T11:40:47.536Z,96997.31
2023-05-15T11:43:22.817Z,96998.06
2023-05-15T11:45:56.377Z,96999.16
2023-05-15T11:48:28.764Z,97003.47
2023-05-15T11:50:58.904Z,97010.75
2023-05-15T11:53:32.869Z,97003.00
2023-05-15T11:56:03.074Z,97011.38
2023-05-15T11:58:33.225Z,97006.75
2023-05-15T12:01:03.432Z,97010.28
2023-05-15T12:03:36.896Z,97013.34
2023-05-15T12:06:07.848Z,97011.81
2023-05-15T12:08:42.255Z,97013.91
2023-05-15T12:11:13.371Z,97020.84
2023-05-15T12:13:43.538Z,97004.50
2023-05-15T12:16:13.774Z,97016.13
2023-05-15T12:18:44.289Z,97012.63
2023-05-15T12:21:16.137Z,97019.47
2023-05-15T12:24:06.208Z,97019.44
2023-05-15T12:26:38.730Z,97009.78
2023-05-15T12:29:09.086Z,97014.41
2023-05-15T12:31:39.552Z,97009.94
2023-05-15T12:34:09.790Z,97007.50
2023-05-15T12:36:40.020Z,97009.56
2023-05-15T12:39:13.481Z,97007.75
2023-05-15T12:41:43.701Z,97008.13
2023-05-15T12:44:19.415Z,97013.63
2023-05-15T12:46:49.621Z,97021.94
2023-05-15T12:49:24.577Z,97022.47
2023-05-15T12:51:54.760Z,97021.91
2023-05-15T12:54:27.626Z,97009.53
2023-05-15T12:57:00.716Z,97023.50
2023-05-15T12:59:33.031Z,97024.03
2023-05-15T13:02:04.708Z,97030.56
2023-05-15T13:04:36.137Z,97033.25
2023-05-15T13:07:06.436Z,97023.97
2023-05-15T13:09:39.216Z,97022.09
2023-05-15T13:12:10.195Z,97024.91
2023-05-15T13:14:40.464Z,97014.94
2023-05-15T13:17:11.279Z,97011.56
2023-05-15T13:19:41.388Z,97009.13
2023-05-15T13:22:11.523Z,97003.81
2023-05-15T13:24:48.636Z,97005.44
2023-05-15T13:27:18.749Z,96998.91
2023-05-15T13:29:48.882Z,96994.09
2023-05-15T13:32:19.016Z,96987.22
2023-05-15T13:34:49.193Z,96985.53
2023-05-15T13:37:19.316Z,96977.72
2023-05-15T13:39:52.060Z,96970.63
2023-05-15T13:42:22.759Z,96968.94
2023-05-15T13:44:53.091Z,96980.91
2023-05-15T13:47:23.318Z,96975.91
2023-05-15T13:49:53.534Z,96972.59
2023-05-15T13:52:24.131Z,96965.53
2023-05-15T13:54:56.976Z,96971.47
2023-05-15T13:57:27.172Z,96983.53
2023-05-15T13:59:57.284Z,96988.09
2023-05-15T14:02:28.938Z,96991.88
2023-05-15T14:04:59.292Z,96989.44
2023-05-15T14:07:29.471Z,96992.69
2023-05-15T14:10:02.300Z,96993.88
2023-05-15T14:12:32.627Z,96994.50
2023-05-15T14:15:03.010Z,96993.22
2023-05-15T14:17:33.980Z,96995.09
2023-05-15T14:20:05.126Z,97002.44
2023-05-15T14:22:35.437Z,96999.09
2023-05-15T14:25:09.689Z,96997.97
2023-05-15T14:27:40.257Z,96995.50
2023-05-15T14:30:11.968Z,97003.19
2023-05-15T14:32:42.173Z,97005.09
2023-05-15T14:35:12.446Z,97000.38
2023-05-15T14:37:43.405Z,97007.28
2023-05-15T14:40:16.985Z,96995.66
2023-05-15T14:42:47.119Z,96994.59
2023-05-15T14:45:17.327Z,96989.34
2023-05-15T14:47:47.542Z,96979.41
2023-05-15T14:50:20.346Z,96977.31
2023-05-15T14:52:50.423Z,96970.66
2023-05-15T14:55:24.744Z,96974.03
2023-05-15T14:57:54.890Z,96956.69
2023-05-15T15:00:25.467Z,96961.66
2023-05-15T15:02:55.874Z,96959.19
2023-05-15T15:05:26.139Z,96955.56
2023-05-15T15:08:04.196Z,96960.06
2023-05-15T15:10:38.097Z,96952.75
2023-05-15T15:13:10.351Z,96941.41
2023-05-15T15:15:40.838Z,96948.72
2023-05-15T15:18:11.007Z,96959.34
2023-05-15T15:20:41.348Z,96952.19
2023-05-15T15:23:11.714Z,96962.84
2023-05-15T15:25:44.548Z,96971.44
2023-05-15T15:28:14.661Z,96960.28
2023-05-15T15:30:44.876Z,96981.41
2023-05-15T15:33:15.020Z,96978.53
2023-05-15T15:35:45.149Z,96978.41
2023-05-15T15:38:15.226Z,96984.38
2023-05-15T15:40:48.033Z,96985.06
2023-05-15T15:43:18.174Z,96994.69
2023-05-15T15:45:48.313Z,97004.81
2023-05-15T15:48:19.141Z,97000.50
2023-05-15T15:50:49.408Z,97004.41
2023-05-15T15:53:19.507Z,96999.69
2023-05-15T15:55:52.492Z,96994.19
2023-05-15T15:58:22.688Z,96997.41
2023-05-15T16:00:52.789Z,96999.81
2023-05-15T16:03:23.303Z,97012.53
2023-05-15T16:05:53.471Z,97009.50
2023-05-15T16:08:23.671Z,97011.94
2023-05-15T16:10:56.855Z,97017.41
2023-05-15T16:13:26.938Z,97019.66
2023-05-15T16:15:57.034Z,97016.13
2023-05-15T16:18:27.418Z,97028.69
2023-05-15T16:20:57.579Z,97023.25
2023-05-15T16:23:27.663Z,97016.84
2023-05-15T16:26:00.396Z,97021.50
2023-05-15T16:28:30.610Z,97031.81
2023-05-15T16:31:01.945Z,97023.72
2023-05-15T16:33:32.359Z,97034.00
2023-05-15T16:36:05.326Z,97028.22
2023-05-15T16:38:35.540Z,97038.72
2023-05-15T16:41:08.445Z,97040.22
2023-05-15T16:43:41.518Z,97038.75
2023-05-15T16:46:11.823Z,97045.69
2023-05-15T16:48:41.973Z,97038.75
2023-05-15T16:51:12.104Z,97044.00
2023-05-15T16:53:42.661Z,97043.97
2023-05-15T16:56:15.513Z,97036.78
2023-05-15T16:58:46.023Z,97043.16
2023-05-15T17:01:16.230Z,97047.03
2023-05-15T17:03:46.674Z,97046.44
2023-05-15T17:06:17.317Z,97051.25
2023-05-15T17:08:47.452Z,97053.16
2023-05-15T17:11:20.236Z,97046.97
2023-05-15T17:13:50.379Z,97055.56
2023-05-15T17:16:20.579Z,97053.88
2023-05-15T17:18:50.888Z,97067.72
2023-05-15T17:21:21.052Z,97065.88
2023-05-15T17:23:51.176Z,97063.44
2023-05-15T17:26:24.529Z,97075.56
2023-05-15T17:28:54.626Z,97065.22
2023-05-15T17:31:24.788Z,97067.97
2023-05-15T17:33:54.884Z,97067.78
2023-05-15T17:36:25.001Z,97066.16
2023-05-15T17:38:55.162Z,97070.03
2023-05-15T17:41:28.049Z,97068.13
2023-05-15T17:43:58.249Z,97071.06
2023-05-15T17:46:28.529Z,97074.38
2023-05-15T17:48:58.802Z,97075.28
2023-05-15T17:51:28.942Z,97075.72
2023-05-15T17:53:59.182Z,97079.84
2023-05-15T17:56:31.938Z,97081.16
2023-05-15T17:59:02.080Z,97085.59
2023-05-15T18:01:32.336Z,97099.00
2023-05-15T18:04:02.599Z,97086.91
2023-05-15T18:06:34.399Z,97094.69
2023-05-15T18:09:05.341Z,97101.47
2023-05-15T18:11:38.267Z,97108.94
2023-05-15T18:14:08.375Z,97109.47
2023-05-15T18:16:38.531Z,97111.63
2023-05-15T18:19:08.815Z,97122.09
2023-05-15T18:21:39.020Z,97119.50
2023-05-15T18:24:09.834Z,97128.97
2023-05-15T18:26:42.706Z,97135.75
2023-05-15T18:29:12.922Z,97135.81
2023-05-15T18:31:43.161Z,97137.22
2023-05-15T18:34:13.342Z,97139.69
2023-05-15T18:36:43.473Z,97136.47
2023-05-15T18:39:15.782Z,97140.44
2023-05-15T18:41:48.500Z,97147.94
2023-05-15T18:44:18.644Z,97150.72
2023-05-15T18:46:48.840Z,97155.94
2023-05-15T18:49:19.075Z,97152.63
2023-05-15T18:51:49.240Z,97150.81
2023-05-15T18:54:19.392Z,97154.03
2023-05-15T18:56:52.260Z,97162.22
2023-05-15T18:59:23.604Z,97163.94
2023-05-15T19:01:54.070Z,97158.56
2023-05-15T19:04:24.442Z,97164.16
2023-05-15T19:06:54.790Z,97169.91
2023-05-15T19:09:24.893Z,97162.03
2023-05-15T19:11:57.992Z,97169.13
2023-05-15T19:14:28.480Z,97171.94
2023-05-15T19:16:58.671Z,97175.50
2023-05-15T19:19:28.948Z,97169.22
2023-05-15T19:21:59.076Z,97182.03
2023-05-15T19:24:30.367Z,97177.66
2023-05-15T19:27:04.250Z,97181.97
2023-05-15T19:29:34.866Z,97192.97
2023-05-15T19:32:05.730Z,97188.03
2023-05-15T19:34:36.351Z,97187.38
2023-05-15T19:37:06.523Z,97182.81
2023-05-15T19:39:36.612Z,97178.28
2023-05-15T19:42:09.668Z,97186.69
2023-05-15T19:44:39.791Z,97188.41
2023-05-15T19:47:10.734Z,97193.78
2023-05-15T19:49:40.924Z,97199.50
2023-05-15T19:52:11.040Z,97195.91
2023-05-15T19:54:41.136Z,97194.28
2023-05-15T19:57:13.909Z,97206.84
2023-05-15T19:59:44.000Z,97208.63
2023-05-15T20:02:14.295Z,97214.38
2023-05-15T20:04:44.481Z,97208.66
2023-05-15T20:07:14.605Z,97213.25
2023-05-15T20:09:44.900Z,97225.00
2023-05-15T20:12:17.608Z,97230.03
2023-05-15T20:14:52.557Z,97234.09
2023-05-15T20:17:22.780Z,97229.91
2023-05-15T20:19:53.234Z,97233.06
2023-05-15T20:22:23.753Z,97239.53
2023-05-15T20:24:54.165Z,97237.78
2023-05-15T20:27:27.018Z,97237.56
2023-05-15T20:29:57.321Z,97240.97
2023-05-15T20:32:27.705Z,97246.13
2023-05-15T20:34:58.145Z,97244.84
2023-05-15T20:37:28.411Z,97246.03
2023-05-15T20:39:58.793Z,97249.13
2023-05-15T20:42:32.593Z,97252.00
2023-05-15T20:45:02.849Z,97246.94
2023-05-15T20:47:33.096Z,97248.69
2023-05-15T20:50:03.597Z,97252.97
2023-05-15T20:52:33.753Z,97250.47
2023-05-15T20:55:04.564Z,97246.13
2023-05-15T20:57:37.504Z,97259.06
2023-05-15T21:00:09.293Z,97251.66
2023-05-15T21:02:39.732Z,97254.88
2023-05-15T21:05:11.226Z,97245.78
2023-05-15T21:07:41.797Z,97249.50
2023-05-15T21:10:12.408Z,97254.84
2023-05-15T21:12:45.217Z,97247.78
2023-05-15T21:15:15.341Z,97258.56
2023-05-15T21:17:45.605Z,97249.28
2023-05-15T21:20:15.979Z,97251.97
2023-05-15T21:22:46.173Z,97249.38
2023-05-15T21:25:19.286Z,97258.03
2023-05-15T21:27:52.137Z,97245.38
2023-05-15T21:30:22.540Z,97245.19
2023-05-15T21:32:52.761Z,97257.56
2023-05-15T21:35:23.036Z,97257.38
2023-05-15T21:37:53.310Z,97254.47
2023-05-15T21:40:23.422Z,97254.13
2023-05-15T21:42:56.196Z,97253.81
2023-05-15T21:45:26.455Z,97252.97
2023-05-15T21:47:56.740Z,97250.84
2023-05-15T21:50:28.867Z,97253.94
2023-05-15T21:52:59.302Z,97252.44
2023-05-15T21:55:29.507Z,97250.44
2023-05-15T21:58:02.376Z,97251.63
2023-05-15T22:00:32.484Z,97255.22
2023-05-15T22:03:02.846Z,97257.78
2023-05-15T22:05:33.021Z,97256.53
2023-05-15T22:08:03.151Z,97253.06
2023-05-15T22:10:33.272Z,97262.47
2023-05-15T22:13:06.092Z,97266.75
2023-05-15T22:15:36.459Z,97264.81
2023-05-15T22:18:07.155Z,97275.03
2023-05-15T22:20:38.104Z,97274.88
2023-05-15T22:23:08.441Z,97275.69
2023-05-15T22:25:38.585Z,97273.41
2023-05-15T22:28:11.353Z,97279.00
2023-05-15T22:30:41.745Z,97283.81
2023-05-15T22:33:11.984Z,97290.94
2023-05-15T22:35:42.131Z,97279.78
2023-05-15T22:38:12.533Z,97285.09
2023-05-15T22:40:44.556Z,97288.88
2023-05-15T22:43:17.497Z,97305.81
2023-05-15T22:45:47.743Z,97307.34
2023-05-15T22:48:18.322Z,97298.53
2023-05-15T22:50:48.756Z,97308.16
2023-05-15T22:53:18.964Z,97299.28
2023-05-15T22:55:49.336Z,97297.25
2023-05-15T22:58:22.550Z,97294.44
2023-05-15T23:00:52.776Z,97296.47
2023-05-15T23:03:22.932Z,97302.03
2023-05-15T23:05:54.586Z,97308.88
2023-05-15T23:08:25.217Z,97307.09
2023-05-15T23:10:56.334Z,97308.09
2023-05-15T23:13:29.073Z,97309.38
2023-05-15T23:15:59.297Z,97316.50
2023-05-15T23:18:29.789Z,97318.78
2023-05-15T23:21:00.018Z,97311.16
2023-05-15T23:23:30.203Z,97316.00
2023-05-15T23:26:00.341Z,97311.19
2023-05-15T23:28:33.117Z,97313.72
2023-05-15T23:31:03.290Z,97307.66
2023-05-15T23:33:33.516Z,97314.72
2023-05-15T23:36:03.795Z,97312.22
2023-05-15T23:38:33.867Z,97320.06
2023-05-15T23:41:04.047Z,97318.03
2023-05-15T23:43:36.782Z,97325.34
2023-05-15T23:46:07.239Z,97324.56
2023-05-15T23:48:37.463Z,97319.25
2023-05-15T23:51:07.884Z,97322.03
2023-05-15T23:53:38.026Z,97320.28
2023-05-15T23:56:10.013Z,97332.91
2023-05-15T23:58:42.697Z,97332.16
